Time;durP1;ratioP1;P1;durP2;ratioP2;P2;SDS_P1;SDS_P2;PMS_P1;PMS_P2;Temp;Humidity;BMP_temperature;BMP_pressure;BME280_temperature;BME280_humidity;BME280_pressure;Samples;Min_cycle;Max_cycle;Signal;HPM_P1;HPM_P2
2021/09/12 08:27:05;;;;;;;10.73;3.88;;;16.80;99.90;;;;;;5071033;28;20601;-72
2021/09/12 08:29:31;;;;;;;7.18;3.42;;;16.20;99.90;;;;;;5070934;28;20567;-72
2021/09/12 08:31:57;;;;;;;6.00;3.67;;;16.30;99.90;;;;;;5070593;28;20633;-72
2021/09/12 08:34:23;;;;;;;10.13;3.80;;;16.50;99.90;;;;;;5070615;28;20183;-72
2021/09/12 08:36:50;;;;;;;4.25;3.70;;;16.50;99.90;;;;;;5070579;28;20245;-72
2021/09/12 08:39:16;;;;;;;4.47;3.80;;;16.70;99.90;;;;;;5070722;28;20346;-72
2021/09/12 08:41:42;;;;;;;7.75;3.83;;;16.70;99.90;;;;;;5070656;28;20183;-72
2021/09/12 08:44:08;;;;;;;4.38;3.75;;;16.90;99.90;;;;;;5070519;28;20173;-72
2021/09/12 08:46:34;;;;;;;5.70;3.60;;;16.90;99.90;;;;;;5070426;28;20192;-72
2021/09/12 08:48:59;;;;;;;6.93;3.58;;;16.90;99.90;;;;;;5070323;28;20167;-72
2021/09/12 08:51:25;;;;;;;15.65;4.40;;;16.90;99.90;;;;;;5070381;28;20195;-73
2021/09/12 08:53:51;;;;;;;17.83;4.43;;;16.90;99.90;;;;;;5069165;28;20175;-72
2021/09/12 08:56:17;;;;;;;5.30;3.30;;;17.00;99.90;;;;;;5070491;28;20164;-72
2021/09/12 08:58:42;;;;;;;7.78;3.50;;;16.80;99.90;;;;;;5070231;28;20222;-72
2021/09/12 09:01:08;;;;;;;7.65;4.80;;;16.80;99.90;;;;;;5070443;28;20566;-72
2021/09/12 09:03:35;;;;;;;8.35;3.38;;;16.80;99.90;;;;;;5070432;28;20164;-72
2021/09/12 09:06:11;;;;;;;11.43;3.63;;;16.80;99.90;;;;;;5070101;28;20192;-72
2021/09/12 09:08:52;;;;;;;5.47;4.03;;;16.50;99.90;;;;;;5070215;28;20199;-72
2021/09/12 09:11:28;;;;;;;10.00;4.07;;;16.50;99.90;;;;;;5070204;28;20165;-72
2021/09/12 09:13:53;;;;;;;6.93;3.72;;;16.60;99.90;;;;;;5050028;28;20618;-72
2021/09/12 09:16:29;;;;;;;4.20;3.10;;;16.50;99.90;;;;;;5050076;28;20166;-72
2021/09/12 09:19:03;;;;;;;7.57;3.50;;;16.60;99.90;;;;;;5050081;28;20696;-72
2021/09/12 09:21:34;;;;;;;4.40;4.00;;;16.60;99.90;;;;;;5049977;28;20253;-72
2021/09/12 09:24:07;;;;;;;5.00;4.50;;;16.60;99.90;;;;;;5049849;28;20176;-72
2021/09/12 09:26:44;;;;;;;6.72;3.67;;;16.80;99.90;;;;;;5048566;28;20233;-72
2021/09/12 09:29:11;;;;;;;8.80;5.00;;;16.90;99.90;;;;;;5049068;28;20551;-72
2021/09/12 09:31:37;;;;;;;6.22;3.67;;;17.10;99.90;;;;;;5049744;28;20161;-72
2021/09/12 09:34:20;;;;;;;4.47;3.95;;;17.20;99.90;;;;;;5048592;28;20583;-72
2021/09/12 09:36:48;;;;;;;5.85;3.50;;;17.40;99.90;;;;;;5045803;28;20161;-72
2021/09/12 09:39:33;;;;;;;4.78;3.20;;;17.50;99.90;;;;;;5036400;28;20268;-72
2021/09/12 09:41:59;;;;;;;3.40;3.13;;;17.50;99.90;;;;;;5036289;28;20623;-72
2021/09/12 09:44:24;;;;;;;7.07;3.13;;;17.40;99.90;;;;;;5036377;28;20177;-72
2021/09/12 09:46:50;;;;;;;3.67;3.15;;;17.30;99.90;;;;;;5036275;28;20728;-72
2021/09/12 09:49:29;;;;;;;3.08;2.78;;;17.40;99.90;;;;;;5036311;28;20582;-72
2021/09/12 09:51:57;;;;;;;7.28;3.72;;;17.40;99.90;;;;;;5036084;28;20173;-72
2021/09/12 09:54:25;;;;;;;6.78;3.20;;;17.50;99.90;;;;;;5036120;28;20170;-72
2021/09/12 09:56:51;;;;;;;4.30;3.35;;;17.60;99.90;;;;;;5036186;28;20220;-72
2021/09/12 09:59:19;;;;;;;4.28;2.95;;;17.60;99.90;;;;;;5036003;28;20643;-72
2021/09/12 10:01:49;;;;;;;6.53;2.85;;;17.60;99.90;;;;;;5034923;28;20193;-72
2021/09/12 10:04:16;;;;;;;6.80;3.13;;;17.60;99.90;;;;;;5036053;28;20170;-72
2021/09/12 10:06:42;;;;;;;6.82;3.60;;;17.60;99.90;;;;;;5035972;28;20200;-72
2021/09/12 10:09:13;;;;;;;3.45;3.22;;;17.50;99.90;;;;;;5035936;28;20177;-72
2021/09/12 10:11:44;;;;;;;4.35;3.95;;;17.50;99.90;;;;;;5035693;28;20564;-72
2021/09/12 10:14:12;;;;;;;4.38;4.07;;;17.50;99.90;;;;;;5035758;28;20162;-72
2021/09/12 10:16:39;;;;;;;4.90;3.20;;;17.50;99.90;;;;;;5035793;28;20515;-72
2021/09/12 10:19:05;;;;;;;4.15;3.65;;;17.50;99.90;;;;;;5035898;28;20173;-72
2021/09/12 10:21:30;;;;;;;3.45;3.25;;;17.50;99.90;;;;;;5035715;28;20170;-72
2021/09/12 10:24:07;;;;;;;3.80;3.40;;;17.60;99.90;;;;;;5035578;28;20575;-72
2021/09/12 10:26:42;;;;;;;7.13;4.80;;;17.60;99.90;;;;;;5035296;28;20275;-72
2021/09/12 10:29:50;;;;;;;4.10;3.70;;;17.80;99.90;;;;;;5035577;28;20189;-72
2021/09/12 10:32:33;;;;;;;4.78;3.80;;;17.90;99.90;;;;;;5035543;28;20619;-71
2021/09/12 10:35:24;;;;;;;3.92;3.60;;;18.00;99.90;;;;;;5034305;28;20201;-72
2021/09/12 10:38:03;;;;;;;5.03;3.70;;;18.10;99.90;;;;;;5035606;28;20166;-72
2021/09/12 10:40:47;;;;;;;4.75;4.40;;;18.30;99.90;;;;;;5035292;28;20165;-72
2021/09/12 10:43:29;;;;;;;6.50;4.35;;;18.40;99.90;;;;;;5035136;28;20165;-72
2021/09/12 10:46:04;;;;;;;5.00;3.97;;;18.40;99.90;;;;;;5035233;28;20670;-72
2021/09/12 10:48:44;;;;;;;12.23;5.18;;;18.50;99.90;;;;;;5034177;28;20176;-72
2021/09/12 10:51:09;;;;;;;6.18;4.78;;;18.50;99.90;;;;;;5035233;28;20166;-72
2021/09/12 10:53:44;;;;;;;5.95;4.80;;;18.60;99.90;;;;;;5035116;28;20176;-72
2021/09/12 10:56:16;;;;;;;5.32;4.95;;;18.60;99.90;;;;;;5035066;28;20165;-72
2021/09/12 10:58:45;;;;;;;5.50;5.00;;;18.60;99.90;;;;;;5035069;28;20169;-72
2021/09/12 11:01:24;;;;;;;5.18;4.78;;;18.50;99.90;;;;;;5034914;28;20169;-72
2021/09/12 11:03:50;;;;;;;6.25;5.65;;;18.60;99.90;;;;;;5034959;28;20181;-72
2021/09/12 11:06:16;;;;;;;9.70;6.22;;;18.50;99.90;;;;;;5034746;28;20200;-72
2021/09/12 11:08:42;;;;;;;5.80;5.47;;;18.50;99.90;;;;;;5035107;28;20173;-72
2021/09/12 11:11:09;;;;;;;6.05;5.70;;;18.50;99.90;;;;;;5034787;28;20169;-72
2021/09/12 11:13:38;;;;;;;6.63;5.35;;;18.50;99.90;;;;;;5034543;28;20229;-72
2021/09/12 11:16:18;;;;;;;8.77;5.97;;;18.40;99.90;;;;;;5034550;28;20176;-72
2021/09/12 11:18:53;;;;;;;6.00;5.55;;;18.40;99.90;;;;;;5034601;28;20176;-72
2021/09/12 11:21:35;;;;;;;5.70;5.07;;;18.50;99.90;;;;;;5034597;28;20196;-72
2021/09/12 11:24:05;;;;;;;7.60;5.60;;;18.40;99.90;;;;;;5034747;28;20166;-72
2021/09/12 11:27:03;;;;;;;10.13;6.05;;;18.60;99.90;;;;;;5034463;28;20217;-72
2021/09/12 11:29:39;;;;;;;4.68;4.28;;;18.70;99.90;;;;;;5033151;28;20174;-72
2021/09/12 11:32:10;;;;;;;5.10;4.57;;;18.70;99.90;;;;;;5034280;28;20191;-72
2021/09/12 11:34:38;;;;;;;6.18;4.57;;;18.60;99.90;;;;;;5034205;28;20570;-72
2021/09/12 11:37:15;;;;;;;6.90;4.00;;;18.60;99.90;;;;;;5034094;28;20169;-72
2021/09/12 11:39:45;;;;;;;4.97;3.60;;;18.60;99.90;;;;;;5033823;28;20192;-72
2021/09/12 11:42:14;;;;;;;4.47;3.95;;;18.60;99.90;;;;;;5033823;28;20245;-72
2021/09/12 11:44:43;;;;;;;6.82;4.13;;;18.60;99.90;;;;;;5033868;28;20165;-72
2021/09/12 11:47:14;;;;;;;4.68;4.10;;;18.60;99.90;;;;;;5033734;28;20193;-72
2021/09/12 11:49:41;;;;;;;3.97;3.55;;;18.70;99.90;;;;;;5033748;28;20220;-72
2021/09/12 11:52:08;;;;;;;4.93;3.25;;;18.90;99.90;;;;;;5033573;28;20162;-72
2021/09/12 11:54:35;;;;;;;4.93;3.00;;;19.00;99.90;;;;;;5033732;28;20169;-72
2021/09/12 11:57:03;;;;;;;3.38;3.17;;;19.10;99.90;;;;;;5033636;28;20227;-72
2021/09/12 11:59:40;;;;;;;6.15;3.22;;;19.20;99.90;;;;;;5033484;28;20252;-72
2021/09/12 12:02:10;;;;;;;5.22;2.85;;;19.30;99.90;;;;;;5033583;28;20169;-72
2021/09/12 12:04:38;;;;;;;2.90;2.70;;;19.30;99.90;;;;;;5033499;28;20298;-72
2021/09/12 12:07:03;;;;;;;3.28;2.85;;;19.40;99.90;;;;;;5033419;28;20197;-72
2021/09/12 12:09:42;;;;;;;4.13;2.63;;;19.50;99.90;;;;;;5033473;28;20172;-72
2021/09/12 12:12:09;;;;;;;3.60;2.83;;;19.60;99.90;;;;;;5033520;28;20172;-72
2021/09/12 12:14:55;;;;;;;2.72;2.53;;;19.80;99.90;;;;;;5033140;28;20168;-72
2021/09/12 12:17:24;;;;;;;3.20;2.65;;;19.90;99.90;;;;;;5033415;28;20307;-72
2021/09/12 12:19:50;;;;;;;3.30;2.38;;;20.10;99.90;;;;;;5033342;28;20173;-72
2021/09/12 12:22:18;;;;;;;4.75;2.40;;;20.10;99.90;;;;;;5033475;28;20172;-72
2021/09/12 12:24:52;;;;;;;3.58;2.50;;;20.10;99.90;;;;;;5033036;28;20165;-72
2021/09/12 12:27:18;;;;;;;6.55;2.95;;;20.10;99.90;;;;;;5033249;28;20204;-72
2021/09/12 12:29:54;;;;;;;5.13;3.08;;;20.10;99.90;;;;;;5033281;28;20166;-72
2021/09/12 12:32:19;;;;;;;4.80;2.83;;;20.20;99.90;;;;;;5033214;28;20657;-72
2021/09/12 12:34:52;;;;;;;2.95;2.40;;;20.30;99.90;;;;;;5033222;28;20169;-71
2021/09/12 12:37:20;;;;;;;6.88;2.53;;;20.40;99.90;;;;;;5033181;28;20165;-71
2021/09/12 12:40:00;;;;;;;5.82;2.53;;;20.60;99.90;;;;;;5033229;28;20189;-72
2021/09/12 12:42:37;;;;;;;3.05;2.72;;;20.80;99.90;;;;;;5033159;28;20168;-72
2021/09/12 12:45:22;;;;;;;3.25;2.10;;;20.90;99.90;;;;;;5033059;28;20172;-72
2021/09/12 12:47:49;;;;;;;2.05;1.95;;;21.00;99.90;;;;;;5033086;28;20177;-72
2021/09/12 12:50:34;;;;;;;5.78;1.80;;;21.10;99.90;;;;;;5033065;28;20248;-72
2021/09/12 12:55:55;;;;;;;2.63;2.42;;;21.50;99.90;;;;;;5033145;28;20178;-72
2021/09/12 12:58:20;;;;;;;2.50;2.30;;;21.30;99.90;;;;;;5033032;28;20235;-72
2021/09/12 13:00:55;;;;;;;3.70;2.50;;;21.00;99.90;;;;;;5033019;28;20173;-72
2021/09/12 13:03:20;;;;;;;3.17;2.40;;;20.60;99.90;;;;;;5032939;28;20173;-72
2021/09/12 13:05:48;;;;;;;3.15;2.92;;;20.30;99.90;;;;;;5032899;28;20204;-72
2021/09/12 13:08:15;;;;;;;3.92;3.55;;;20.10;99.90;;;;;;5032930;28;20196;-72
2021/09/12 13:10:41;;;;;;;2.80;2.60;;;20.00;99.90;;;;;;5032922;28;20169;-72
2021/09/12 13:13:08;;;;;;;3.28;2.40;;;20.10;99.90;;;;;;5035278;28;20196;-72
2021/09/12 13:15:37;;;;;;;5.85;2.40;;;20.10;99.90;;;;;;5036604;28;20176;-72
2021/09/12 13:18:04;;;;;;;2.65;2.55;;;20.30;99.90;;;;;;5036577;28;20170;-72
2021/09/12 13:20:30;;;;;;;3.35;2.95;;;20.40;99.90;;;;;;5035298;28;20184;-72
2021/09/12 13:22:56;;;;;;;3.60;3.13;;;20.30;99.90;;;;;;5036540;28;20169;-71
2021/09/12 13:25:22;;;;;;;3.83;3.30;;;20.10;99.90;;;;;;5036177;28;20225;-72
2021/09/12 13:27:49;;;;;;;3.10;2.53;;;19.90;99.90;;;;;;5036367;28;20256;-72
2021/09/12 13:30:15;;;;;;;4.43;3.10;;;20.00;99.90;;;;;;5036419;28;20161;-71
2021/09/12 13:32:41;;;;;;;2.92;2.72;;;20.20;99.90;;;;;;5036313;28;20641;-72
2021/09/12 13:35:07;;;;;;;3.10;2.65;;;20.50;99.90;;;;;;5036246;28;20622;-72
2021/09/12 13:37:33;;;;;;;3.42;3.17;;;20.80;99.90;;;;;;5036149;28;20689;-72
2021/09/12 13:39:58;;;;;;;5.72;3.20;;;20.90;99.90;;;;;;5036079;28;20331;-72
2021/09/12 13:42:24;;;;;;;2.92;2.72;;;21.00;99.90;;;;;;5035103;28;20169;-72
2021/09/12 13:44:49;;;;;;;3.53;3.22;;;21.00;99.90;;;;;;5034968;28;20173;-72
2021/09/12 13:47:15;;;;;;;4.50;3.05;;;21.10;99.90;;;;;;5036275;28;20160;-72
2021/09/12 13:49:40;;;;;;;4.90;3.08;;;21.20;99.90;;;;;;5036410;28;20171;-72
2021/09/12 13:52:06;;;;;;;3.38;3.13;;;21.00;99.90;;;;;;5036368;28;20168;-71
2021/09/12 13:54:32;;;;;;;3.30;2.83;;;20.70;99.90;;;;;;5035973;28;20201;-72
2021/09/12 13:56:57;;;;;;;3.33;2.88;;;20.40;99.90;;;;;;5035799;28;20197;-72
2021/09/12 13:59:23;;;;;;;3.65;2.92;;;20.30;99.90;;;;;;5035726;28;20650;-72
2021/09/12 14:01:48;;;;;;;5.45;2.80;;;20.10;99.90;;;;;;5035806;28;20172;-72
2021/09/12 14:04:14;;;;;;;3.10;2.90;;;20.00;99.90;;;;;;5035794;28;20252;-71
2021/09/12 14:06:39;;;;;;;3.55;3.25;;;20.10;99.90;;;;;;5034253;28;20694;-72
2021/09/12 14:09:06;;;;;;;3.30;2.70;;;20.30;99.90;;;;;;5035550;28;20173;-72
2021/09/12 14:11:32;;;;;;;2.22;2.13;;;20.40;99.90;;;;;;5035406;28;20165;-72
2021/09/12 14:13:57;;;;;;;3.67;2.42;;;20.50;99.90;;;;;;5035794;28;20169;-72
2021/09/12 14:16:23;;;;;;;3.05;2.30;;;20.80;99.90;;;;;;5035351;28;20626;-72
2021/09/12 14:18:48;;;;;;;2.75;2.25;;;21.00;99.90;;;;;;5035308;28;20299;-72
2021/09/12 14:21:14;;;;;;;4.55;2.55;;;21.20;99.90;;;;;;5035325;28;20184;-72
2021/09/12 14:23:40;;;;;;;3.65;2.25;;;21.40;99.90;;;;;;5035092;28;20239;-72
2021/09/12 14:26:06;;;;;;;2.58;2.05;;;21.60;99.90;;;;;;5034888;28;20225;-72
2021/09/12 14:28:32;;;;;;;3.05;2.85;;;21.80;99.90;;;;;;5035162;28;20174;-72
2021/09/12 14:30:57;;;;;;;2.33;1.88;;;21.70;99.90;;;;;;5034997;28;20173;-72
2021/09/12 14:33:23;;;;;;;2.20;2.08;;;21.50;99.90;;;;;;5035012;28;20169;-72
2021/09/12 14:35:49;;;;;;;9.55;2.53;;;21.10;99.90;;;;;;5034952;28;20176;-72
2021/09/12 14:38:14;;;;;;;2.20;2.10;;;20.70;99.90;;;;;;5034949;28;20256;-72
2021/09/12 14:40:40;;;;;;;2.28;2.05;;;20.40;99.90;;;;;;5034862;28;20176;-72
2021/09/12 14:43:05;;;;;;;2.75;2.53;;;20.10;99.90;;;;;;5034870;28;20181;-72
2021/09/12 14:45:31;;;;;;;3.55;2.30;;;20.00;99.90;;;;;;5034703;28;20694;-72
2021/09/12 14:47:56;;;;;;;2.42;2.22;;;20.10;99.90;;;;;;5033522;28;20623;-72
2021/09/12 14:50:24;;;;;;;2.65;2.42;;;20.40;99.90;;;;;;5034646;28;20169;-73
2021/09/12 14:52:51;;;;;;;3.03;2.28;;;20.60;99.90;;;;;;5034669;28;20220;-72
2021/09/12 14:55:16;;;;;;;2.38;2.00;;;20.80;99.90;;;;;;5034458;28;20244;-72
2021/09/12 14:57:42;;;;;;;2.78;2.45;;;21.00;99.90;;;;;;5034590;28;20268;-72
2021/09/12 15:00:11;;;;;;;1.65;1.55;;;21.20;99.90;;;;;;5034779;28;20178;-72
2021/09/12 15:02:41;;;;;;;2.10;1.95;;;21.40;99.90;;;;;;5034474;28;20177;-72
2021/09/12 15:05:09;;;;;;;2.75;2.20;;;21.70;99.90;;;;;;5033123;28;20180;-72
2021/09/12 15:07:35;;;;;;;2.20;2.10;;;21.90;99.90;;;;;;5034385;28;20248;-72
2021/09/12 15:10:02;;;;;;;4.03;2.00;;;22.10;99.90;;;;;;5034304;28;20625;-72
2021/09/12 15:12:27;;;;;;;2.47;2.38;;;22.20;99.90;;;;;;5034299;28;20169;-72
2021/09/12 15:14:53;;;;;;;6.65;3.88;;;22.20;99.90;;;;;;5034167;28;20162;-72
2021/09/12 15:17:19;;;;;;;4.38;3.88;;;22.20;99.90;;;;;;5034172;28;20645;-72
2021/09/12 15:19:44;;;;;;;3.75;2.30;;;22.20;99.90;;;;;;5034102;28;20252;-72
2021/09/12 15:22:10;;;;;;;2.00;1.90;;;22.40;99.90;;;;;;5034052;28;20171;-72
2021/09/12 15:24:35;;;;;;;2.30;2.20;;;22.50;99.90;;;;;;5034128;28;20173;-70
2021/09/12 15:27:01;;;;;;;1.98;1.88;;;22.60;99.90;;;;;;5033862;28;20578;-70
2021/09/12 15:29:27;;;;;;;4.55;2.33;;;22.70;99.90;;;;;;5033991;28;20173;-70
2021/09/12 15:31:52;;;;;;;4.18;3.63;;;22.50;99.90;;;;;;5033933;28;20173;-70
2021/09/12 15:34:23;;;;;;;5.63;3.80;;;22.40;99.90;;;;;;5033624;28;20165;-70
2021/09/12 15:36:51;;;;;;;2.97;2.78;;;22.10;99.90;;;;;;5034061;28;20188;-70
2021/09/12 15:39:18;;;;;;;2.60;2.50;;;21.90;99.90;;;;;;5033784;28;20252;-69
2021/09/12 15:41:45;;;;;;;2.80;2.53;;;21.60;99.90;;;;;;5033749;28;20244;-70
2021/09/12 15:44:10;;;;;;;5.35;2.45;;;21.50;99.90;;;;;;5033810;28;20177;-70
2021/09/12 15:46:36;;;;;;;3.30;1.73;;;21.10;99.90;;;;;;5033874;28;20165;-70
2021/09/12 15:49:02;;;;;;;3.15;1.88;;;20.90;99.90;;;;;;5034187;28;20830;-70
2021/09/12 15:51:30;;;;;;;2.00;1.88;;;20.70;99.90;;;;;;5033827;28;20176;-69
2021/09/12 15:53:56;;;;;;;1.90;1.80;;;20.40;99.90;;;;;;5033889;28;20226;-70
2021/09/12 15:56:26;;;;;;;9.15;2.58;;;20.30;99.90;;;;;;5033696;28;20571;-70
2021/09/12 15:58:51;;;;;;;2.80;2.10;;;20.20;99.90;;;;;;5033713;28;20510;-70
2021/09/12 16:01:17;;;;;;;3.03;2.40;;;20.10;99.90;;;;;;5033790;28;20181;-71
2021/09/12 16:03:43;;;;;;;2.45;2.25;;;20.00;99.90;;;;;;5033769;28;20180;-70
2021/09/12 16:06:09;;;;;;;2.88;1.83;;;20.10;99.90;;;;;;5033571;28;20573;-70
2021/09/12 16:08:34;;;;;;;1.98;1.85;;;20.10;99.90;;;;;;5033624;28;20237;-70
2021/09/12 16:11:00;;;;;;;4.07;2.10;;;20.10;99.90;;;;;;5033736;28;20230;-70
2021/09/12 16:13:25;;;;;;;4.78;3.00;;;20.10;99.90;;;;;;5032326;28;20619;-70
2021/09/12 16:15:51;;;;;;;7.60;2.38;;;20.10;99.90;;;;;;5033505;28;20251;-70
2021/09/12 16:18:17;;;;;;;3.95;2.53;;;20.30;99.90;;;;;;5033670;28;20249;-70
2021/09/12 16:20:42;;;;;;;5.20;2.92;;;20.50;99.90;;;;;;5032380;28;20623;-70
2021/09/12 16:23:08;;;;;;;4.82;2.85;;;20.60;99.90;;;;;;5033658;28;20169;-70
2021/09/12 16:25:34;;;;;;;4.78;2.80;;;20.60;99.90;;;;;;5033521;28;20686;-70
2021/09/12 16:27:59;;;;;;;2.72;2.53;;;20.60;99.90;;;;;;5033699;28;20219;-71
2021/09/12 16:30:25;;;;;;;3.95;2.50;;;20.50;99.90;;;;;;5033671;28;20161;-70
2021/09/12 16:32:50;;;;;;;5.40;3.00;;;20.50;99.90;;;;;;5033516;28;20177;-70
2021/09/12 16:35:16;;;;;;;5.72;3.08;;;20.50;99.90;;;;;;5033459;28;20193;-70
2021/09/12 16:37:42;;;;;;;2.72;2.53;;;20.50;99.90;;;;;;5033480;28;20169;-70
2021/09/12 16:40:09;;;;;;;3.50;3.20;;;20.40;99.90;;;;;;5033528;28;20173;-70
2021/09/12 16:42:38;;;;;;;3.97;2.63;;;20.40;99.90;;;;;;5032350;28;20247;-70
2021/09/12 16:45:11;;;;;;;3.78;3.20;;;20.20;99.90;;;;;;5033288;28;20208;-70
2021/09/12 16:47:37;;;;;;;3.00;2.70;;;20.20;99.90;;;;;;5035216;28;20192;-70
2021/09/12 16:50:03;;;;;;;6.35;2.97;;;20.20;99.90;;;;;;5037420;28;20197;-70
2021/09/12 16:52:29;;;;;;;3.53;3.28;;;20.10;99.90;;;;;;5037503;28;20228;-70
2021/09/12 16:54:54;;;;;;;5.35;3.63;;;20.10;99.90;;;;;;5036057;28;20177;-70
2021/09/12 16:57:20;;;;;;;3.25;3.05;;;20.10;99.90;;;;;;5037073;28;20266;-70
2021/09/12 16:59:45;;;;;;;2.90;2.70;;;20.10;99.90;;;;;;5037291;28;20169;-70
2021/09/12 17:02:11;;;;;;;5.10;2.88;;;20.10;99.90;;;;;;5037142;28;20204;-70
2021/09/12 17:04:37;;;;;;;4.22;3.67;;;19.90;99.90;;;;;;5036939;28;20173;-70
2021/09/12 17:07:03;;;;;;;4.57;3.28;;;19.90;99.90;;;;;;5036980;28;20169;-70
2021/09/12 17:09:29;;;;;;;7.78;3.08;;;19.90;99.90;;;;;;5036840;28;20192;-70
2021/09/12 17:11:55;;;;;;;4.57;3.80;;;19.90;99.90;;;;;;5036731;28;20181;-70
2021/09/12 17:14:20;;;;;;;3.90;3.60;;;19.80;99.90;;;;;;5036781;28;20199;-70
2021/09/12 17:16:46;;;;;;;3.65;3.22;;;19.70;99.90;;;;;;5036402;28;20654;-70
2021/09/12 17:19:11;;;;;;;3.50;3.30;;;19.60;99.90;;;;;;5036509;28;20223;-70
2021/09/12 17:21:37;;;;;;;5.35;4.13;;;19.60;99.90;;;;;;5036492;28;20661;-70
2021/09/12 17:24:03;;;;;;;4.35;3.88;;;19.40;99.90;;;;;;5036440;28;20176;-70
2021/09/12 17:26:29;;;;;;;3.38;3.05;;;19.40;99.90;;;;;;5036202;28;20236;-70
2021/09/12 17:28:54;;;;;;;4.40;4.00;;;19.30;99.90;;;;;;5036398;28;20177;-70
2021/09/12 17:31:20;;;;;;;4.25;3.75;;;19.20;99.90;;;;;;5036242;28;20172;-70
2021/09/12 17:33:46;;;;;;;6.43;4.05;;;19.10;99.90;;;;;;5036308;28;20502;-70
2021/09/12 17:36:12;;;;;;;5.90;4.25;;;19.00;99.90;;;;;;5036257;28;20203;-70
2021/09/12 17:38:38;;;;;;;5.30;4.70;;;18.90;99.90;;;;;;5034984;28;20180;-70
2021/09/12 17:41:03;;;;;;;4.28;3.97;;;18.80;99.90;;;;;;5036327;28;20513;-70
2021/09/12 17:43:30;;;;;;;10.05;4.70;;;18.70;99.90;;;;;;5036117;28;20243;-70
2021/09/12 17:45:56;;;;;;;4.00;3.70;;;18.50;99.90;;;;;;5034797;28;20544;-70
2021/09/12 17:48:22;;;;;;;10.80;4.60;;;18.50;99.90;;;;;;5036000;28;20184;-70
2021/09/12 17:50:48;;;;;;;4.70;4.40;;;18.40;99.90;;;;;;5034736;28;20253;-70
2021/09/12 17:53:13;;;;;;;6.57;4.85;;;18.20;99.90;;;;;;5034652;28;20181;-70
2021/09/12 17:55:39;;;;;;;5.15;4.20;;;18.10;99.90;;;;;;5035794;28;20191;-71
